sensor_id;sensor_type;location;lat;lon;timestamp;pressure;altitude;pressure_sealevel;temperature;humidity
47374;BME280;33123;50.118;10.272;2023-06-24T00:02:18;98570.97;;;16.07;74.00
47374;BME280;33123;50.118;10.272;2023-06-24T00:04:49;98572.31;;;16.09;73.76
47374;BME280;33123;50.118;10.272;2023-06-24T00:07:16;98375.81;;;14.72;73.56
47374;BME280;33123;50.118;10.272;2023-06-24T00:09:42;98335.34;;;14.50;73.78
47374;BME280;33123;50.118;10.272;2023-06-24T00:12:09;98568.59;;;16.16;73.69
47374;BME280;33123;50.118;10.272;2023-06-24T00:14:37;98328.03;;;14.67;73.41
47374;BME280;33123;50.118;10.272;2023-06-24T00:17:04;98560.41;;;16.22;73.33
47374;BME280;33123;50.118;10.272;2023-06-24T00:19:32;98427.38;;;15.34;73.42
47374;BME280;33123;50.118;10.272;2023-06-24T00:21:59;98136.91;;;13.52;72.50
47374;BME280;33123;50.118;10.272;2023-06-24T00:24:29;98407.84;;;15.03;72.48
47374;BME280;33123;50.118;10.272;2023-06-24T00:26:56;98337.03;;;14.66;73.19
47374;BME280;33123;50.118;10.272;2023-06-24T00:29:22;98342.53;;;14.60;72.74
47374;BME280;33123;50.118;10.272;2023-06-24T00:31:50;98581.13;;;16.20;72.61
47374;BME280;33123;50.118;10.272;2023-06-24T00:34:17;98375.38;;;14.91;72.25
47374;BME280;33123;50.118;10.272;2023-06-24T00:36:45;98576.59;;;16.16;72.97
47374;BME280;33123;50.118;10.272;2023-06-24T00:39:12;98380.16;;;14.89;73.33
47374;BME280;33123;50.118;10.272;2023-06-24T00:41:39;98417.94;;;15.06;72.48
47374;BME280;33123;50.118;10.272;2023-06-24T00:44:05;98570.72;;;16.08;72.36
47374;BME280;33123;50.118;10.272;2023-06-24T00:46:32;98558.75;;;16.06;73.36
47374;BME280;33123;50.118;10.272;2023-06-24T00:49:01;98323.63;;;14.46;73.27
47374;BME280;33123;50.118;10.272;2023-06-24T00:51:28;98328.72;;;14.52;73.12
47374;BME280;33123;50.118;10.272;2023-06-24T00:53:56;98562.19;;;16.01;72.85
47374;BME280;33123;50.118;10.272;2023-06-24T00:56:29;98227.19;;;13.78;72.78
47374;BME280;33123;50.118;10.272;2023-06-24T00:58:57;98565.63;;;15.97;72.92
47374;BME280;33123;50.118;10.272;2023-06-24T01:01:27;98374.22;;;14.71;73.34
47374;BME280;33123;50.118;10.272;2023-06-24T01:03:57;98357.66;;;14.59;72.45
47374;BME280;33123;50.118;10.272;2023-06-24T01:06:25;98537.56;;;15.69;73.06
47374;BME280;33123;50.118;10.272;2023-06-24T01:08:54;98568.22;;;15.87;72.93
47374;BME280;33123;50.118;10.272;2023-06-24T01:11:21;98403.22;;;14.83;72.66
47374;BME280;33123;50.118;10.272;2023-06-24T01:13:48;98571.91;;;15.80;72.55
47374;BME280;33123;50.118;10.272;2023-06-24T01:16:19;98329.19;;;14.12;72.90
47374;BME280;33123;50.118;10.272;2023-06-24T01:18:51;98562.63;;;15.78;72.67
47374;BME280;33123;50.118;10.272;2023-06-24T01:21:33;98290.19;;;14.08;73.17
47374;BME280;33123;50.118;10.272;2023-06-24T01:24:17;98319.09;;;14.09;73.73
47374;BME280;33123;50.118;10.272;2023-06-24T01:27:16;98286.13;;;13.95;73.82
47374;BME280;33123;50.118;10.272;2023-06-24T01:30:03;98335.13;;;14.24;73.29
47374;BME280;33123;50.118;10.272;2023-06-24T01:32:43;98408.19;;;14.74;72.49
47374;BME280;33123;50.118;10.272;2023-06-24T01:35:15;98545.19;;;15.60;72.89
47374;BME280;33123;50.118;10.272;2023-06-24T01:37:48;98368.69;;;14.46;73.36
47374;BME280;33123;50.118;10.272;2023-06-24T01:40:20;98551.56;;;15.59;73.79
47374;BME280;33123;50.118;10.272;2023-06-24T01:42:49;98552.91;;;15.56;73.66
47374;BME280;33123;50.118;10.272;2023-06-24T01:45:19;98551.28;;;15.55;73.69
47374;BME280;33123;50.118;10.272;2023-06-24T01:47:54;98469.66;;;14.98;73.16
47374;BME280;33123;50.118;10.272;2023-06-24T01:50:25;98183.34;;;13.06;72.79
47374;BME280;33123;50.118;10.272;2023-06-24T01:52:53;98547.25;;;15.48;73.07
47374;BME280;33123;50.118;10.272;2023-06-24T01:55:21;98358.16;;;14.19;73.01
47374;BME280;33123;50.118;10.272;2023-06-24T01:57:50;98312.84;;;13.88;73.00
47374;BME280;33123;50.118;10.272;2023-06-24T02:00:18;98408.25;;;14.47;72.72
47374;BME280;33123;50.118;10.272;2023-06-24T02:02:45;98193.63;;;13.02;72.37
47374;BME280;33123;50.118;10.272;2023-06-24T02:05:15;98372.25;;;14.24;72.75
47374;BME280;33123;50.118;10.272;2023-06-24T02:07:44;98540.81;;;15.34;72.42
47374;BME280;33123;50.118;10.272;2023-06-24T02:10:13;98340.50;;;14.03;72.64
47374;BME280;33123;50.118;10.272;2023-06-24T02:12:43;98351.69;;;14.10;72.53
47374;BME280;33123;50.118;10.272;2023-06-24T02:15:10;98517.72;;;15.02;73.07
47374;BME280;33123;50.118;10.272;2023-06-24T02:17:39;98534.88;;;15.21;72.70
47374;BME280;33123;50.118;10.272;2023-06-24T02:20:07;98302.75;;;13.58;72.91
47374;BME280;33123;50.118;10.272;2023-06-24T02:22:38;98533.22;;;15.15;73.12
47374;BME280;33123;50.118;10.272;2023-06-24T02:25:06;98531.63;;;15.14;72.98
47374;BME280;33123;50.118;10.272;2023-06-24T02:27:34;98305.00;;;13.71;73.40
47374;BME280;33123;50.118;10.272;2023-06-24T02:30:03;98266.56;;;13.42;72.97
47374;BME280;33123;50.118;10.272;2023-06-24T02:32:30;98316.63;;;13.70;72.75
47374;BME280;33123;50.118;10.272;2023-06-24T02:34:57;98316.16;;;13.73;73.02
47374;BME280;33123;50.118;10.272;2023-06-24T02:37:24;98474.78;;;14.73;72.76
47374;BME280;33123;50.118;10.272;2023-06-24T02:39:52;98290.41;;;13.42;73.28
47374;BME280;33123;50.118;10.272;2023-06-24T02:42:18;98529.94;;;15.03;73.03
47374;BME280;33123;50.118;10.272;2023-06-24T02:44:45;98336.81;;;13.77;72.88
47374;BME280;33123;50.118;10.272;2023-06-24T02:47:14;98202.91;;;12.78;73.06
47374;BME280;33123;50.118;10.272;2023-06-24T02:49:42;98294.03;;;13.36;73.86
47374;BME280;33123;50.118;10.272;2023-06-24T02:52:12;98341.53;;;13.69;72.94
47374;BME280;33123;50.118;10.272;2023-06-24T02:54:40;98154.38;;;12.45;73.04
47374;BME280;33123;50.118;10.272;2023-06-24T02:57:09;98485.56;;;14.61;73.44
47374;BME280;33123;50.118;10.272;2023-06-24T02:59:36;98300.94;;;13.37;72.86
47374;BME280;33123;50.118;10.272;2023-06-24T03:02:03;98283.91;;;13.28;72.44
47374;BME280;33123;50.118;10.272;2023-06-24T03:04:31;98538.59;;;14.88;72.98
47374;BME280;33123;50.118;10.272;2023-06-24T03:06:57;98308.34;;;13.35;73.74
47374;BME280;33123;50.118;10.272;2023-06-24T03:09:26;98376.63;;;13.82;73.27
47374;BME280;33123;50.118;10.272;2023-06-24T03:11:53;98537.75;;;14.83;73.39
47374;BME280;33123;50.118;10.272;2023-06-24T03:14:21;98250.78;;;12.81;73.53
47374;BME280;33123;50.118;10.272;2023-06-24T03:16:47;98540.91;;;14.79;73.73
47374;BME280;33123;50.118;10.272;2023-06-24T03:19:14;98373.25;;;13.64;73.53
47374;BME280;33123;50.118;10.272;2023-06-24T03:21:40;98309.19;;;13.18;73.44
47374;BME280;33123;50.118;10.272;2023-06-24T03:24:07;98288.56;;;12.99;73.36
47374;BME280;33123;50.118;10.272;2023-06-24T03:26:35;98544.63;;;14.78;73.87
47374;BME280;33123;50.118;10.272;2023-06-24T03:29:02;98462.13;;;14.26;73.27
47374;BME280;33123;50.118;10.272;2023-06-24T03:31:30;98165.31;;;12.32;73.92
47374;BME280;33123;50.118;10.272;2023-06-24T03:33:56;98533.22;;;14.78;74.07
47374;BME280;33123;50.118;10.272;2023-06-24T03:36:23;98493.78;;;14.33;73.88
47374;BME280;33123;50.118;10.272;2023-06-24T03:38:50;98551.78;;;14.78;74.10
47374;BME280;33123;50.118;10.272;2023-06-24T03:41:17;98340.91;;;13.35;74.08
47374;BME280;33123;50.118;10.272;2023-06-24T03:43:44;98362.56;;;13.54;74.32
47374;BME280;33123;50.118;10.272;2023-06-24T03:46:11;98531.22;;;14.63;74.92
47374;BME280;33123;50.118;10.272;2023-06-24T03:48:39;98561.13;;;14.86;74.88
47374;BME280;33123;50.118;10.272;2023-06-24T03:51:05;98258.97;;;12.80;74.28
47374;BME280;33123;50.118;10.272;2023-06-24T03:53:32;98177.88;;;12.41;74.11
47374;BME280;33123;50.118;10.272;2023-06-24T03:55:59;98489.53;;;14.37;74.11
47374;BME280;33123;50.118;10.272;2023-06-24T03:58:26;98594.66;;;14.97;73.70
47374;BME280;33123;50.118;10.272;2023-06-24T04:00:53;98465.88;;;14.30;73.98
47374;BME280;33123;50.118;10.272;2023-06-24T04:03:22;98270.84;;;12.99;74.01
47374;BME280;33123;50.118;10.272;2023-06-24T04:05:53;98488.66;;;14.53;74.07
47374;BME280;33123;50.118;10.272;2023-06-24T04:08:19;98332.28;;;13.45;74.62
47374;BME280;33123;50.118;10.272;2023-06-24T04:10:46;98569.09;;;15.18;74.87
47374;BME280;33123;50.118;10.272;2023-06-24T04:13:12;98396.44;;;14.01;75.35
47374;BME280;33123;50.118;10.272;2023-06-24T04:15:39;98350.44;;;13.85;75.26
47374;BME280;33123;50.118;10.272;2023-06-24T04:18:06;98503.84;;;14.90;75.39
47374;BME280;33123;50.118;10.272;2023-06-24T04:20:32;98464.94;;;14.68;75.07
47374;BME280;33123;50.118;10.272;2023-06-24T04:23:00;98581.56;;;15.54;75.06
47374;BME280;33123;50.118;10.272;2023-06-24T04:25:27;98538.38;;;15.32;75.47
47374;BME280;33123;50.118;10.272;2023-06-24T04:27:54;98582.25;;;15.72;76.35
47374;BME280;33123;50.118;10.272;2023-06-24T04:30:20;98325.94;;;14.00;76.30
47374;BME280;33123;50.118;10.272;2023-06-24T04:32:47;98393.31;;;14.73;76.51
47374;BME280;33123;50.118;10.272;2023-06-24T04:35:14;98341.16;;;14.47;75.96
47374;BME280;33123;50.118;10.272;2023-06-24T04:37:40;98596.06;;;16.21;77.08
47374;BME280;33123;50.118;10.272;2023-06-24T04:40:09;98432.84;;;15.12;77.17
47374;BME280;33123;50.118;10.272;2023-06-24T04:42:36;98406.66;;;15.31;76.32
47374;BME280;33123;50.118;10.272;2023-06-24T04:45:03;98603.41;;;16.72;77.38
47374;BME280;33123;50.118;10.272;2023-06-24T04:47:31;98610.09;;;16.89;75.83
47374;BME280;33123;50.118;10.272;2023-06-24T04:49:57;98293.16;;;15.01;75.13
47374;BME280;33123;50.118;10.272;2023-06-24T04:52:24;98600.00;;;17.22;77.33
47374;BME280;33123;50.118;10.272;2023-06-24T04:54:51;98449.50;;;16.48;76.37
47374;BME280;33123;50.118;10.272;2023-06-24T04:57:28;98615.97;;;17.78;76.32
47374;BME280;33123;50.118;10.272;2023-06-24T04:59:56;98455.66;;;16.95;74.31
47374;BME280;33123;50.118;10.272;2023-06-24T05:09:37;98611.63;;;19.07;71.69
47374;BME280;33123;50.118;10.272;2023-06-24T05:12:50;98267.03;;;17.17;69.74
47374;BME280;33123;50.118;10.272;2023-06-24T05:15:17;98139.72;;;16.64;68.74
47374;BME280;33123;50.118;10.272;2023-06-24T05:17:50;98321.97;;;17.97;67.91
47374;BME280;33123;50.118;10.272;2023-06-24T05:20:36;98462.19;;;19.15;66.51
47374;BME280;33123;50.118;10.272;2023-06-24T05:23:06;98332.63;;;18.60;65.55
47374;BME280;33123;50.118;10.272;2023-06-24T05:25:41;98288.44;;;18.48;65.31
47374;BME280;33123;50.118;10.272;2023-06-24T05:28:13;98411.91;;;19.41;64.88
47374;BME280;33123;50.118;10.272;2023-06-24T05:30:51;98624.91;;;21.08;62.35
47374;BME280;33123;50.118;10.272;2023-06-24T05:33:18;98411.28;;;19.92;61.47
47374;BME280;33123;50.118;10.272;2023-06-24T05:35:45;98211.97;;;18.82;60.60
47374;BME280;33123;50.118;10.272;2023-06-24T05:38:14;98412.50;;;20.19;60.62
47374;BME280;33123;50.118;10.272;2023-06-24T05:40:44;98314.91;;;19.60;60.67
47374;BME280;33123;50.118;10.272;2023-06-24T05:43:19;98386.34;;;20.16;59.98
47374;BME280;33123;50.118;10.272;2023-06-24T05:46:01;98275.38;;;19.75;60.11
47374;BME280;33123;50.118;10.272;2023-06-24T05:48:32;98609.25;;;22.08;58.09
47374;BME280;33123;50.118;10.272;2023-06-24T05:50:59;98614.34;;;22.24;57.42
47374;BME280;33123;50.118;10.272;2023-06-24T05:53:26;98610.50;;;22.16;57.07
47374;BME280;33123;50.118;10.272;2023-06-24T05:55:53;98311.03;;;20.55;56.92
47374;BME280;33123;50.118;10.272;2023-06-24T05:58:22;98464.53;;;21.71;55.53
47374;BME280;33123;50.118;10.272;2023-06-24T06:00:48;98410.91;;;21.57;56.00
47374;BME280;33123;50.118;10.272;2023-06-24T06:03:15;98422.75;;;21.92;55.95
47374;BME280;33123;50.118;10.272;2023-06-24T06:05:42;98627.63;;;23.51;54.18
47374;BME280;33123;50.118;10.272;2023-06-24T06:08:08;98619.09;;;23.80;53.63
47374;BME280;33123;50.118;10.272;2023-06-24T06:10:35;98501.47;;;23.18;53.33
47374;BME280;33123;50.118;10.272;2023-06-24T06:13:02;98418.88;;;23.10;52.94
47374;BME280;33123;50.118;10.272;2023-06-24T06:15:30;98394.59;;;23.33;52.53
47374;BME280;33123;50.118;10.272;2023-06-24T06:17:56;98631.28;;;25.18;51.51
47374;BME280;33123;50.118;10.272;2023-06-24T06:20:23;98437.66;;;24.16;49.31
47374;BME280;33123;50.118;10.272;2023-06-24T06:22:51;98625.81;;;25.78;50.17
47374;BME280;33123;50.118;10.272;2023-06-24T06:25:18;98624.25;;;26.07;47.78
47374;BME280;33123;50.118;10.272;2023-06-24T06:27:44;98494.00;;;25.63;47.09
47374;BME280;33123;50.118;10.272;2023-06-24T06:30:12;98566.84;;;26.40;47.89
47374;BME280;33123;50.118;10.272;2023-06-24T06:32:41;98588.03;;;26.58;46.53
47374;BME280;33123;50.118;10.272;2023-06-24T06:35:08;98621.81;;;26.94;46.40
47374;BME280;33123;50.118;10.272;2023-06-24T06:37:35;98259.50;;;24.82;46.04
47374;BME280;33123;50.118;10.272;2023-06-24T06:40:02;98618.28;;;27.35;45.19
47374;BME280;33123;50.118;10.272;2023-06-24T06:42:29;98623.97;;;27.55;44.96
47374;BME280;33123;50.118;10.272;2023-06-24T06:44:56;98432.44;;;26.49;45.15
47374;BME280;33123;50.118;10.272;2023-06-24T06:47:23;98463.66;;;26.92;44.50
47374;BME280;33123;50.118;10.272;2023-06-24T06:49:51;98354.13;;;26.19;44.39
47374;BME280;33123;50.118;10.272;2023-06-24T06:52:17;98514.75;;;27.51;44.18
47374;BME280;33123;50.118;10.272;2023-06-24T06:54:44;98527.16;;;27.64;43.55
47374;BME280;33123;50.118;10.272;2023-06-24T06:57:10;98434.84;;;27.20;42.40
47374;BME280;33123;50.118;10.272;2023-06-24T06:59:37;98613.91;;;28.50;41.68
47374;BME280;33123;50.118;10.272;2023-06-24T07:02:05;98611.16;;;28.62;40.96
47374;BME280;33123;50.118;10.272;2023-06-24T07:04:32;98409.84;;;27.23;41.71
47374;BME280;33123;50.118;10.272;2023-06-24T07:07:00;98609.03;;;28.55;41.60
47374;BME280;33123;50.118;10.272;2023-06-24T07:09:27;98607.28;;;28.75;41.92
47374;BME280;33123;50.118;10.272;2023-06-24T07:11:54;98607.84;;;28.93;41.03
47374;BME280;33123;50.118;10.272;2023-06-24T07:14:21;98587.28;;;29.08;40.86
47374;BME280;33123;50.118;10.272;2023-06-24T07:16:50;98562.78;;;29.04;39.81
47374;BME280;33123;50.118;10.272;2023-06-24T07:19:17;98613.78;;;29.55;39.14
47374;BME280;33123;50.118;10.272;2023-06-24T07:21:43;98618.09;;;29.71;38.95
47374;BME280;33123;50.118;10.272;2023-06-24T07:24:11;98494.47;;;28.74;39.35
47374;BME280;33123;50.118;10.272;2023-06-24T07:26:41;98534.19;;;29.38;37.66
47374;BME280;33123;50.118;10.272;2023-06-24T07:29:10;98370.91;;;28.61;36.59
47374;BME280;33123;50.118;10.272;2023-06-24T07:31:37;98354.78;;;28.68;35.78
47374;BME280;33123;50.118;10.272;2023-06-24T07:34:04;98605.91;;;30.48;36.41
47374;BME280;33123;50.118;10.272;2023-06-24T07:36:31;98390.97;;;29.19;35.19
47374;BME280;33123;50.118;10.272;2023-06-24T07:39:00;98322.41;;;28.91;35.25
47374;BME280;33123;50.118;10.272;2023-06-24T07:41:32;98322.06;;;28.61;35.09
47374;BME280;33123;50.118;10.272;2023-06-24T07:44:04;98490.97;;;29.81;35.40
47374;BME280;33123;50.118;10.272;2023-06-24T07:46:34;98630.63;;;30.59;35.03
47374;BME280;33123;50.118;10.272;2023-06-24T07:49:01;98600.88;;;30.15;35.72
47374;BME280;33123;50.118;10.272;2023-06-24T07:51:27;98602.38;;;29.65;35.90
47374;BME280;33123;50.118;10.272;2023-06-24T07:53:57;98539.25;;;29.40;35.38
47374;BME280;33123;50.118;10.272;2023-06-24T07:56:43;98615.22;;;30.12;35.80
47374;BME280;33123;50.118;10.272;2023-06-24T07:59:16;98614.84;;;30.13;35.74
47374;BME280;33123;50.118;10.272;2023-06-24T08:01:47;98465.50;;;29.54;35.74
47374;BME280;33123;50.118;10.272;2023-06-24T08:04:17;98455.66;;;29.65;35.95
47374;BME280;33123;50.118;10.272;2023-06-24T08:06:44;98404.66;;;29.74;34.92
47374;BME280;33123;50.118;10.272;2023-06-24T08:09:19;98495.94;;;30.68;34.23
47374;BME280;33123;50.118;10.272;2023-06-24T08:11:59;98399.84;;;30.22;32.68
47374;BME280;33123;50.118;10.272;2023-06-24T08:14:39;98475.56;;;30.78;33.62
47374;BME280;33123;50.118;10.272;2023-06-24T08:17:18;98384.09;;;30.12;33.71
47374;BME280;33123;50.118;10.272;2023-06-24T08:19:54;98327.91;;;29.81;33.21
47374;BME280;33123;50.118;10.272;2023-06-24T08:22:27;98485.34;;;31.25;33.78
47374;BME280;33123;50.118;10.272;2023-06-24T08:24:59;98474.72;;;31.20;31.69
47374;BME280;33123;50.118;10.272;2023-06-24T08:27:32;98548.31;;;31.66;32.09
47374;BME280;33123;50.118;10.272;2023-06-24T08:30:05;98597.00;;;31.90;32.55
47374;BME280;33123;50.118;10.272;2023-06-24T08:32:44;98393.06;;;30.74;32.94
47374;BME280;33123;50.118;10.272;2023-06-24T08:35:16;98249.56;;;29.83;33.25
47374;BME280;33123;50.118;10.272;2023-06-24T08:37:47;98401.75;;;30.60;31.91
47374;BME280;33123;50.118;10.272;2023-06-24T08:40:29;98371.38;;;30.16;31.97
47374;BME280;33123;50.118;10.272;2023-06-24T08:43:17;98598.69;;;31.52;33.07
47374;BME280;33123;50.118;10.272;2023-06-24T08:45:50;98573.19;;;31.64;32.19
47374;BME280;33123;50.118;10.272;2023-06-24T08:48:18;98361.41;;;30.04;32.57
47374;BME280;33123;50.118;10.272;2023-06-24T08:51:01;98580.38;;;31.76;31.57
47374;BME280;33123;50.118;10.272;2023-06-24T08:53:36;98363.91;;;30.32;30.96
47374;BME280;33123;50.118;10.272;2023-06-24T08:56:16;98451.34;;;30.73;30.28
47374;BME280;33123;50.118;10.272;2023-06-24T08:58:53;98319.34;;;29.79;32.43
47374;BME280;33123;50.118;10.272;2023-06-24T09:01:31;98189.44;;;29.26;33.09
47374;BME280;33123;50.118;10.272;2023-06-24T09:04:08;98585.22;;;31.83;31.86
47374;BME280;33123;50.118;10.272;2023-06-24T09:06:44;98357.28;;;30.53;31.32
47374;BME280;33123;50.118;10.272;2023-06-24T09:09:27;98310.69;;;30.54;32.35
47374;BME280;33123;50.118;10.272;2023-06-24T09:12:00;98440.44;;;31.91;29.64
47374;BME280;33123;50.118;10.272;2023-06-24T09:14:34;98210.25;;;30.95;29.78
47374;BME280;33123;50.118;10.272;2023-06-24T09:17:10;98579.19;;;33.50;28.54
47374;BME280;33123;50.118;10.272;2023-06-24T09:19:37;98284.31;;;31.64;28.53
47374;BME280;33123;50.118;10.272;2023-06-24T09:22:11;98568.56;;;33.42;29.34
47374;BME280;33123;50.118;10.272;2023-06-24T09:24:46;98457.09;;;32.13;30.38
47374;BME280;33123;50.118;10.272;2023-06-24T09:27:17;98359.53;;;31.16;30.58
47374;BME280;33123;50.118;10.272;2023-06-24T09:29:51;98342.66;;;30.61;30.99
47374;BME280;33123;50.118;10.272;2023-06-24T09:32:26;98438.19;;;30.98;30.64
47374;BME280;33123;50.118;10.272;2023-06-24T09:34:55;98254.97;;;29.44;30.15
47374;BME280;33123;50.118;10.272;2023-06-24T09:37:35;98537.31;;;31.16;31.08
47374;BME280;33123;50.118;10.272;2023-06-24T09:40:08;98517.19;;;31.01;30.68
47374;BME280;33123;50.118;10.272;2023-06-24T09:42:48;98265.50;;;29.65;30.76
47374;BME280;33123;50.118;10.272;2023-06-24T09:45:24;98162.16;;;29.00;30.46
47374;BME280;33123;50.118;10.272;2023-06-24T09:47:53;98572.69;;;30.93;30.31
47374;BME280;33123;50.118;10.272;2023-06-24T09:50:36;98332.59;;;29.10;31.16
47374;BME280;33123;50.118;10.272;2023-06-24T09:53:07;98219.84;;;28.02;32.85
47374;BME280;33123;50.118;10.272;2023-06-24T09:55:47;98564.06;;;30.02;32.34
47374;BME280;33123;50.118;10.272;2023-06-24T09:58:24;98576.63;;;29.90;31.92
47374;BME280;33123;50.118;10.272;2023-06-24T10:00:56;98411.16;;;28.75;33.27
47374;BME280;33123;50.118;10.272;2023-06-24T10:03:29;98349.06;;;28.13;34.08
47374;BME280;33123;50.118;10.272;2023-06-24T10:06:02;98483.13;;;28.56;34.15
47374;BME280;33123;50.118;10.272;2023-06-24T10:08:42;98370.38;;;27.99;35.16
47374;BME280;33123;50.118;10.272;2023-06-24T10:11:14;98418.00;;;28.84;32.75
47374;BME280;33123;50.118;10.272;2023-06-24T10:13:47;98547.91;;;30.24;33.26
47374;BME280;33123;50.118;10.272;2023-06-24T10:16:18;98412.09;;;29.96;32.21
47374;BME280;33123;50.118;10.272;2023-06-24T10:18:45;98542.00;;;30.96;30.80
47374;BME280;33123;50.118;10.272;2023-06-24T10:21:15;98156.44;;;28.54;30.83
47374;BME280;33123;50.118;10.272;2023-06-24T10:23:43;98526.66;;;31.08;30.87
47374;BME280;33123;50.118;10.272;2023-06-24T10:26:22;98493.78;;;31.20;33.58
47374;BME280;33123;50.118;10.272;2023-06-24T10:29:08;98450.06;;;31.59;31.05
47374;BME280;33123;50.118;10.272;2023-06-24T10:31:52;98520.41;;;32.89;29.20
47374;BME280;33123;50.118;10.272;2023-06-24T10:34:27;98337.94;;;32.20;27.75
47374;BME280;33123;50.118;10.272;2023-06-24T10:36:54;98514.97;;;33.81;28.61
47374;BME280;33123;50.118;10.272;2023-06-24T10:39:38;98350.41;;;33.54;29.93
47374;BME280;33123;50.118;10.272;2023-06-24T10:42:37;98510.44;;;34.90;25.18
47374;BME280;33123;50.118;10.272;2023-06-24T10:45:16;98530.53;;;35.44;26.02
47374;BME280;33123;50.118;10.272;2023-06-24T10:47:46;98504.66;;;35.67;26.21
47374;BME280;33123;50.118;10.272;2023-06-24T10:50:14;98344.94;;;34.77;25.96
47374;BME280;33123;50.118;10.272;2023-06-24T10:52:42;98439.97;;;35.80;23.56
47374;BME280;33123;50.118;10.272;2023-06-24T10:55:09;98353.50;;;35.47;25.20
47374;BME280;33123;50.118;10.272;2023-06-24T10:57:37;98279.16;;;35.16;25.49
47374;BME280;33123;50.118;10.272;2023-06-24T11:00:15;98303.75;;;35.52;25.23
47374;BME280;33123;50.118;10.272;2023-06-24T11:02:47;98259.56;;;35.22;24.06
47374;BME280;33123;50.118;10.272;2023-06-24T11:05:31;98425.72;;;36.25;24.28
47374;BME280;33123;50.118;10.272;2023-06-24T11:08:00;98335.44;;;35.60;24.46
47374;BME280;33123;50.118;10.272;2023-06-24T11:10:27;98476.28;;;36.41;23.12
47374;BME280;33123;50.118;10.272;2023-06-24T11:12:53;98441.09;;;36.11;23.77
47374;BME280;33123;50.118;10.272;2023-06-24T11:15:20;98215.06;;;34.18;22.68
47374;BME280;33123;50.118;10.272;2023-06-24T11:17:50;98305.75;;;34.34;22.80
47374;BME280;33123;50.118;10.272;2023-06-24T11:20:17;98473.22;;;34.61;23.93
47374;BME280;33123;50.118;10.272;2023-06-24T11:22:44;98347.69;;;33.54;25.36
47374;BME280;33123;50.118;10.272;2023-06-24T11:25:14;98445.59;;;34.07;26.34
47374;BME280;33123;50.118;10.272;2023-06-24T11:27:42;98450.50;;;33.80;27.10
47374;BME280;33123;50.118;10.272;2023-06-24T11:30:09;98462.13;;;33.59;27.87
47374;BME280;33123;50.118;10.272;2023-06-24T11:32:37;98462.28;;;33.36;27.06
47374;BME280;33123;50.118;10.272;2023-06-24T11:35:08;98356.66;;;32.22;27.38
47374;BME280;33123;50.118;10.272;2023-06-24T11:37:35;98412.13;;;32.33;28.09
47374;BME280;33123;50.118;10.272;2023-06-24T11:40:03;98451.53;;;32.69;29.24
47374;BME280;33123;50.118;10.272;2023-06-24T11:42:31;98418.84;;;32.39;27.69
47374;BME280;33123;50.118;10.272;2023-06-24T11:45:01;98398.31;;;32.52;29.08
47374;BME280;33123;50.118;10.272;2023-06-24T11:47:31;98456.75;;;32.18;27.65
47374;BME280;33123;50.118;10.272;2023-06-24T11:49:58;98462.38;;;32.62;29.23
47374;BME280;33123;50.118;10.272;2023-06-24T11:52:38;98418.75;;;31.98;28.14
47374;BME280;33123;50.118;10.272;2023-06-24T11:55:11;98433.84;;;32.26;29.47
47374;BME280;33123;50.118;10.272;2023-06-24T11:57:49;98387.00;;;31.87;29.42
47374;BME280;33123;50.118;10.272;2023-06-24T12:00:18;98448.50;;;32.11;30.30
47374;BME280;33123;50.118;10.272;2023-06-24T12:02:45;98265.31;;;30.85;30.29
47374;BME280;33123;50.118;10.272;2023-06-24T12:05:12;98443.59;;;31.93;31.05
47374;BME280;33123;50.118;10.272;2023-06-24T12:07:40;98442.75;;;31.89;32.12
47374;BME280;33123;50.118;10.272;2023-06-24T12:10:08;98446.19;;;31.83;32.63
47374;BME280;33123;50.118;10.272;2023-06-24T12:12:35;98390.97;;;31.36;31.85
47374;BME280;33123;50.118;10.272;2023-06-24T12:15:01;98371.34;;;31.00;32.08
47374;BME280;33123;50.118;10.272;2023-06-24T12:17:28;98442.00;;;31.39;32.66
47374;BME280;33123;50.118;10.272;2023-06-24T12:19:54;98391.84;;;30.94;31.17
47374;BME280;33123;50.118;10.272;2023-06-24T12:22:21;98350.75;;;30.57;31.87
47374;BME280;33123;50.118;10.272;2023-06-24T12:24:49;98399.47;;;30.85;30.86
47374;BME280;33123;50.118;10.272;2023-06-24T12:27:16;98438.25;;;31.01;30.69
47374;BME280;33123;50.118;10.272;2023-06-24T12:29:42;98428.94;;;31.02;32.34
47374;BME280;33123;50.118;10.272;2023-06-24T12:32:09;98425.72;;;30.97;30.70
47374;BME280;33123;50.118;10.272;2023-06-24T12:34:35;98356.75;;;30.66;30.39
47374;BME280;33123;50.118;10.272;2023-06-24T12:37:02;98323.06;;;30.52;31.13
47374;BME280;33123;50.118;10.272;2023-06-24T12:39:29;98392.44;;;31.07;31.98
47374;BME280;33123;50.118;10.272;2023-06-24T12:41:57;98221.84;;;30.16;32.61
47374;BME280;33123;50.118;10.272;2023-06-24T12:44:23;98380.69;;;31.26;30.45
47374;BME280;33123;50.118;10.272;2023-06-24T12:46:50;98367.75;;;30.96;30.32
47374;BME280;33123;50.118;10.272;2023-06-24T12:49:16;98405.66;;;31.05;29.24
47374;BME280;33123;50.118;10.272;2023-06-24T12:51:43;98354.72;;;30.40;29.69
47374;BME280;33123;50.118;10.272;2023-06-24T12:54:11;98348.50;;;30.82;31.07
47374;BME280;33123;50.118;10.272;2023-06-24T12:56:37;98374.97;;;30.85;30.06
47374;BME280;33123;50.118;10.272;2023-06-24T12:59:05;98263.56;;;29.85;30.10
47374;BME280;33123;50.118;10.272;2023-06-24T13:01:32;98380.88;;;30.26;29.97
47374;BME280;33123;50.118;10.272;2023-06-24T13:03:58;98396.44;;;30.48;30.31
47374;BME280;33123;50.118;10.272;2023-06-24T13:06:25;98406.66;;;30.32;30.95
47374;BME280;33123;50.118;10.272;2023-06-24T13:08:52;98374.50;;;29.98;30.88
47374;BME280;33123;50.118;10.272;2023-06-24T13:11:18;98326.84;;;29.85;32.15
47374;BME280;33123;50.118;10.272;2023-06-24T13:13:45;98398.13;;;30.33;33.07